sensor_id;sensor_type;location;lat;lon;timestamp;P1;durP1;ratioP1;P2;durP2;ratioP2
9671;SDS011;4874;43.568;27.824;2022-11-14T00:01:05;32.58;;;15.70;;
9671;SDS011;4874;43.568;27.824;2022-11-14T00:03:36;37.58;;;15.88;;
9671;SDS011;4874;43.568;27.824;2022-11-14T00:06:04;30.60;;;15.20;;
9671;SDS011;4874;43.568;27.824;2022-11-14T00:08:32;29.52;;;15.32;;
9671;SDS011;4874;43.568;27.824;2022-11-14T00:11:00;42.53;;;17.33;;
9671;SDS011;4874;43.568;27.824;2022-11-14T00:13:27;31.13;;;15.65;;
9671;SDS011;4874;43.568;27.824;2022-11-14T00:15:54;40.47;;;18.77;;
9671;SDS011;4874;43.568;27.824;2022-11-14T00:18:20;38.25;;;18.20;;
9671;SDS011;4874;43.568;27.824;2022-11-14T00:20:48;41.50;;;21.00;;
9671;SDS011;4874;43.568;27.824;2022-11-14T00:23:16;46.40;;;23.33;;
9671;SDS011;4874;43.568;27.824;2022-11-14T00:25:44;41.70;;;22.75;;
9671;SDS011;4874;43.568;27.824;2022-11-14T00:28:11;47.50;;;23.70;;
9671;SDS011;4874;43.568;27.824;2022-11-14T00:33:04;47.53;;;25.13;;
9671;SDS011;4874;43.568;27.824;2022-11-14T00:35:31;51.50;;;26.90;;
9671;SDS011;4874;43.568;27.824;2022-11-14T00:37:58;44.08;;;25.10;;
9671;SDS011;4874;43.568;27.824;2022-11-14T00:40:24;44.63;;;23.05;;
9671;SDS011;4874;43.568;27.824;2022-11-14T00:42:51;40.65;;;21.27;;
9671;SDS011;4874;43.568;27.824;2022-11-14T00:47:44;42.53;;;19.05;;
9671;SDS011;4874;43.568;27.824;2022-11-14T00:50:11;50.53;;;19.10;;
9671;SDS011;4874;43.568;27.824;2022-11-14T00:52:37;42.35;;;19.83;;
9671;SDS011;4874;43.568;27.824;2022-11-14T00:55:04;38.03;;;17.65;;
9671;SDS011;4874;43.568;27.824;2022-11-14T00:57:32;38.35;;;19.38;;
9671;SDS011;4874;43.568;27.824;2022-11-14T00:59:58;49.67;;;23.83;;
9671;SDS011;4874;43.568;27.824;2022-11-14T01:02:25;37.67;;;17.58;;
9671;SDS011;4874;43.568;27.824;2022-11-14T01:04:52;30.88;;;16.63;;
9671;SDS011;4874;43.568;27.824;2022-11-14T01:09:45;34.63;;;15.95;;
9671;SDS011;4874;43.568;27.824;2022-11-14T01:12:12;30.30;;;15.13;;
9671;SDS011;4874;43.568;27.824;2022-11-14T01:17:06;32.37;;;16.47;;
9671;SDS011;4874;43.568;27.824;2022-11-14T01:19:33;37.75;;;17.05;;
9671;SDS011;4874;43.568;27.824;2022-11-14T01:22:00;41.15;;;17.42;;
9671;SDS011;4874;43.568;27.824;2022-11-14T01:24:31;38.05;;;18.02;;
9671;SDS011;4874;43.568;27.824;2022-11-14T01:26:59;38.08;;;17.15;;
9671;SDS011;4874;43.568;27.824;2022-11-14T01:29:26;57.65;;;26.48;;
9671;SDS011;4874;43.568;27.824;2022-11-14T01:31:53;65.18;;;29.33;;
9671;SDS011;4874;43.568;27.824;2022-11-14T01:36:46;84.10;;;30.05;;
9671;SDS011;4874;43.568;27.824;2022-11-14T01:39:13;76.03;;;32.67;;
9671;SDS011;4874;43.568;27.824;2022-11-14T01:41:40;70.45;;;31.65;;
9671;SDS011;4874;43.568;27.824;2022-11-14T01:44:16;64.45;;;28.77;;
9671;SDS011;4874;43.568;27.824;2022-11-14T01:47:03;51.95;;;27.13;;
9671;SDS011;4874;43.568;27.824;2022-11-14T01:49:35;92.97;;;27.98;;
9671;SDS011;4874;43.568;27.824;2022-11-14T01:52:06;72.70;;;28.27;;
9671;SDS011;4874;43.568;27.824;2022-11-14T01:54:37;53.28;;;24.45;;
9671;SDS011;4874;43.568;27.824;2022-11-14T01:57:25;53.88;;;24.73;;
9671;SDS011;4874;43.568;27.824;2022-11-14T01:59:57;78.40;;;25.58;;
9671;SDS011;4874;43.568;27.824;2022-11-14T02:02:27;71.68;;;24.20;;
9671;SDS011;4874;43.568;27.824;2022-11-14T02:07:40;57.03;;;21.38;;
9671;SDS011;4874;43.568;27.824;2022-11-14T02:10:09;54.55;;;22.27;;
9671;SDS011;4874;43.568;27.824;2022-11-14T02:12:41;53.47;;;21.92;;
9671;SDS011;4874;43.568;27.824;2022-11-14T02:15:08;54.55;;;20.23;;
9671;SDS011;4874;43.568;27.824;2022-11-14T02:17:35;47.33;;;18.75;;
9671;SDS011;4874;43.568;27.824;2022-11-14T02:22:30;44.17;;;17.38;;
9671;SDS011;4874;43.568;27.824;2022-11-14T02:27:23;56.30;;;18.73;;
9671;SDS011;4874;43.568;27.824;2022-11-14T02:29:50;48.03;;;19.30;;
9671;SDS011;4874;43.568;27.824;2022-11-14T02:32:17;51.88;;;18.48;;
9671;SDS011;4874;43.568;27.824;2022-11-14T02:37:10;42.22;;;16.15;;
9671;SDS011;4874;43.568;27.824;2022-11-14T02:39:37;52.42;;;16.95;;
9671;SDS011;4874;43.568;27.824;2022-11-14T02:42:04;49.03;;;18.63;;
9671;SDS011;4874;43.568;27.824;2022-11-14T02:44:31;46.60;;;17.42;;
9671;SDS011;4874;43.568;27.824;2022-11-14T02:49:24;45.50;;;17.13;;
9671;SDS011;4874;43.568;27.824;2022-11-14T02:51:50;49.90;;;18.02;;
9671;SDS011;4874;43.568;27.824;2022-11-14T02:54:17;41.65;;;16.35;;
9671;SDS011;4874;43.568;27.824;2022-11-14T02:56:44;50.53;;;15.90;;
9671;SDS011;4874;43.568;27.824;2022-11-14T02:59:10;41.63;;;15.75;;
9671;SDS011;4874;43.568;27.824;2022-11-14T03:01:37;43.45;;;15.80;;
9671;SDS011;4874;43.568;27.824;2022-11-14T03:04:04;36.72;;;16.27;;
9671;SDS011;4874;43.568;27.824;2022-11-14T03:08:57;47.42;;;15.57;;
9671;SDS011;4874;43.568;27.824;2022-11-14T03:11:24;42.28;;;14.75;;
9671;SDS011;4874;43.568;27.824;2022-11-14T03:13:50;39.92;;;16.00;;
9671;SDS011;4874;43.568;27.824;2022-11-14T03:16:17;34.90;;;16.02;;
9671;SDS011;4874;43.568;27.824;2022-11-14T03:18:44;32.50;;;16.58;;
9671;SDS011;4874;43.568;27.824;2022-11-14T03:21:12;42.63;;;16.27;;
9671;SDS011;4874;43.568;27.824;2022-11-14T03:23:43;44.83;;;16.35;;
9671;SDS011;4874;43.568;27.824;2022-11-14T03:26:10;37.75;;;16.00;;
9671;SDS011;4874;43.568;27.824;2022-11-14T03:28:38;35.85;;;16.30;;
9671;SDS011;4874;43.568;27.824;2022-11-14T03:31:06;49.63;;;15.43;;
9671;SDS011;4874;43.568;27.824;2022-11-14T03:33:34;34.67;;;14.07;;
9671;SDS011;4874;43.568;27.824;2022-11-14T03:36:02;68.88;;;16.70;;
9671;SDS011;4874;43.568;27.824;2022-11-14T03:38:29;51.72;;;14.38;;
9671;SDS011;4874;43.568;27.824;2022-11-14T03:40:57;43.20;;;14.93;;
9671;SDS011;4874;43.568;27.824;2022-11-14T03:43:25;64.20;;;16.90;;
9671;SDS011;4874;43.568;27.824;2022-11-14T03:45:57;52.13;;;17.25;;
9671;SDS011;4874;43.568;27.824;2022-11-14T03:48:25;55.33;;;18.75;;
9671;SDS011;4874;43.568;27.824;2022-11-14T03:50:52;49.67;;;20.52;;
9671;SDS011;4874;43.568;27.824;2022-11-14T03:53:19;48.40;;;16.30;;
9671;SDS011;4874;43.568;27.824;2022-11-14T03:58:13;62.22;;;16.42;;
9671;SDS011;4874;43.568;27.824;2022-11-14T04:00:40;65.93;;;15.18;;
9671;SDS011;4874;43.568;27.824;2022-11-14T04:03:06;44.22;;;15.23;;
9671;SDS011;4874;43.568;27.824;2022-11-14T04:05:33;57.15;;;15.57;;
9671;SDS011;4874;43.568;27.824;2022-11-14T04:07:59;59.55;;;14.52;;
9671;SDS011;4874;43.568;27.824;2022-11-14T04:10:29;50.40;;;15.43;;
9671;SDS011;4874;43.568;27.824;2022-11-14T04:12:56;37.80;;;14.32;;
9671;SDS011;4874;43.568;27.824;2022-11-14T04:17:49;47.08;;;15.05;;
9671;SDS011;4874;43.568;27.824;2022-11-14T04:20:16;39.13;;;14.30;;
9671;SDS011;4874;43.568;27.824;2022-11-14T04:22:43;42.50;;;15.00;;
9671;SDS011;4874;43.568;27.824;2022-11-14T04:25:11;47.40;;;16.25;;
9671;SDS011;4874;43.568;27.824;2022-11-14T04:27:38;48.20;;;16.48;;
9671;SDS011;4874;43.568;27.824;2022-11-14T04:32:32;37.83;;;15.85;;
9671;SDS011;4874;43.568;27.824;2022-11-14T04:34:58;40.45;;;16.25;;
9671;SDS011;4874;43.568;27.824;2022-11-14T04:37:25;39.75;;;14.32;;
9671;SDS011;4874;43.568;27.824;2022-11-14T04:39:52;47.90;;;16.40;;
9671;SDS011;4874;43.568;27.824;2022-11-14T04:42:19;39.28;;;14.93;;
9671;SDS011;4874;43.568;27.824;2022-11-14T04:44:45;40.83;;;16.77;;
9671;SDS011;4874;43.568;27.824;2022-11-14T04:49:38;41.17;;;16.40;;
9671;SDS011;4874;43.568;27.824;2022-11-14T04:52:05;39.17;;;17.33;;
9671;SDS011;4874;43.568;27.824;2022-11-14T04:54:32;48.70;;;16.40;;
9671;SDS011;4874;43.568;27.824;2022-11-14T04:56:58;49.60;;;16.77;;
9671;SDS011;4874;43.568;27.824;2022-11-14T04:59:25;54.65;;;16.50;;
9671;SDS011;4874;43.568;27.824;2022-11-14T05:01:52;53.38;;;18.23;;
9671;SDS011;4874;43.568;27.824;2022-11-14T05:04:18;49.65;;;16.55;;
9671;SDS011;4874;43.568;27.824;2022-11-14T05:06:45;51.15;;;19.35;;
9671;SDS011;4874;43.568;27.824;2022-11-14T05:09:12;38.15;;;16.77;;
9671;SDS011;4874;43.568;27.824;2022-11-14T05:11:39;51.17;;;16.42;;
9671;SDS011;4874;43.568;27.824;2022-11-14T05:14:06;46.28;;;18.20;;
9671;SDS011;4874;43.568;27.824;2022-11-14T05:18:59;44.63;;;16.60;;
9671;SDS011;4874;43.568;27.824;2022-11-14T05:21:25;55.65;;;17.73;;
9671;SDS011;4874;43.568;27.824;2022-11-14T05:23:52;37.67;;;16.40;;
9671;SDS011;4874;43.568;27.824;2022-11-14T05:26:19;44.42;;;18.00;;
9671;SDS011;4874;43.568;27.824;2022-11-14T05:28:45;36.72;;;16.80;;
9671;SDS011;4874;43.568;27.824;2022-11-14T05:31:12;59.83;;;17.92;;
9671;SDS011;4874;43.568;27.824;2022-11-14T05:33:43;42.75;;;17.80;;
9671;SDS011;4874;43.568;27.824;2022-11-14T05:36:11;40.67;;;17.15;;
9671;SDS011;4874;43.568;27.824;2022-11-14T05:38:39;38.50;;;17.73;;
9671;SDS011;4874;43.568;27.824;2022-11-14T05:41:10;38.30;;;17.13;;
9671;SDS011;4874;43.568;27.824;2022-11-14T05:43:38;37.00;;;16.45;;
9671;SDS011;4874;43.568;27.824;2022-11-14T05:46:07;49.30;;;16.60;;
9671;SDS011;4874;43.568;27.824;2022-11-14T05:48:36;42.40;;;17.48;;
9671;SDS011;4874;43.568;27.824;2022-11-14T05:51:04;42.45;;;17.33;;
9671;SDS011;4874;43.568;27.824;2022-11-14T05:53:32;44.08;;;17.27;;
9671;SDS011;4874;43.568;27.824;2022-11-14T05:56:00;45.67;;;18.40;;
9671;SDS011;4874;43.568;27.824;2022-11-14T05:58:31;59.40;;;19.85;;
9671;SDS011;4874;43.568;27.824;2022-11-14T06:01:12;48.67;;;18.60;;
9671;SDS011;4874;43.568;27.824;2022-11-14T06:03:42;44.08;;;18.58;;
9671;SDS011;4874;43.568;27.824;2022-11-14T06:06:11;52.03;;;21.23;;
9671;SDS011;4874;43.568;27.824;2022-11-14T06:08:39;48.25;;;19.50;;
9671;SDS011;4874;43.568;27.824;2022-11-14T06:11:10;54.40;;;20.85;;
9671;SDS011;4874;43.568;27.824;2022-11-14T06:13:39;54.33;;;22.75;;
9671;SDS011;4874;43.568;27.824;2022-11-14T06:16:08;64.03;;;26.90;;
9671;SDS011;4874;43.568;27.824;2022-11-14T06:18:37;64.03;;;27.92;;
9671;SDS011;4874;43.568;27.824;2022-11-14T06:21:09;63.15;;;28.80;;
9671;SDS011;4874;43.568;27.824;2022-11-14T06:23:41;58.13;;;27.00;;
9671;SDS011;4874;43.568;27.824;2022-11-14T06:26:21;59.35;;;27.40;;
9671;SDS011;4874;43.568;27.824;2022-11-14T06:28:50;58.75;;;25.30;;
9671;SDS011;4874;43.568;27.824;2022-11-14T06:31:18;54.30;;;24.92;;
9671;SDS011;4874;43.568;27.824;2022-11-14T06:33:46;61.20;;;26.95;;
9671;SDS011;4874;43.568;27.824;2022-11-14T06:36:13;54.88;;;25.88;;
9671;SDS011;4874;43.568;27.824;2022-11-14T06:38:40;58.22;;;25.15;;
9671;SDS011;4874;43.568;27.824;2022-11-14T06:41:09;51.15;;;24.92;;
9671;SDS011;4874;43.568;27.824;2022-11-14T06:43:38;62.60;;;26.75;;
9671;SDS011;4874;43.568;27.824;2022-11-14T06:46:07;58.80;;;25.45;;
9671;SDS011;4874;43.568;27.824;2022-11-14T06:48:36;53.28;;;25.13;;
9671;SDS011;4874;43.568;27.824;2022-11-14T06:51:04;57.80;;;27.17;;
9671;SDS011;4874;43.568;27.824;2022-11-14T06:53:32;58.03;;;27.02;;
9671;SDS011;4874;43.568;27.824;2022-11-14T06:56:00;54.63;;;25.85;;
9671;SDS011;4874;43.568;27.824;2022-11-14T06:58:31;51.30;;;23.42;;
9671;SDS011;4874;43.568;27.824;2022-11-14T07:01:03;44.90;;;23.00;;
9671;SDS011;4874;43.568;27.824;2022-11-14T07:03:33;50.65;;;23.45;;
9671;SDS011;4874;43.568;27.824;2022-11-14T07:06:00;52.15;;;25.65;;
9671;SDS011;4874;43.568;27.824;2022-11-14T07:08:28;46.75;;;23.63;;
9671;SDS011;4874;43.568;27.824;2022-11-14T07:11:04;51.13;;;23.45;;
9671;SDS011;4874;43.568;27.824;2022-11-14T07:13:59;47.78;;;22.25;;
9671;SDS011;4874;43.568;27.824;2022-11-14T07:16:30;50.45;;;22.77;;
9671;SDS011;4874;43.568;27.824;2022-11-14T07:19:01;51.13;;;22.15;;
9671;SDS011;4874;43.568;27.824;2022-11-14T07:21:29;49.90;;;22.15;;
9671;SDS011;4874;43.568;27.824;2022-11-14T07:23:56;47.63;;;21.73;;
9671;SDS011;4874;43.568;27.824;2022-11-14T07:28:50;47.60;;;22.55;;
9671;SDS011;4874;43.568;27.824;2022-11-14T07:31:19;52.40;;;22.73;;
9671;SDS011;4874;43.568;27.824;2022-11-14T07:33:46;50.05;;;22.52;;
9671;SDS011;4874;43.568;27.824;2022-11-14T07:38:40;51.95;;;23.05;;
9671;SDS011;4874;43.568;27.824;2022-11-14T07:43:34;47.78;;;21.40;;
9671;SDS011;4874;43.568;27.824;2022-11-14T07:46:02;51.17;;;24.17;;
9671;SDS011;4874;43.568;27.824;2022-11-14T07:48:33;52.05;;;23.35;;
9671;SDS011;4874;43.568;27.824;2022-11-14T07:51:00;50.13;;;22.55;;
9671;SDS011;4874;43.568;27.824;2022-11-14T07:53:28;54.03;;;24.33;;
9671;SDS011;4874;43.568;27.824;2022-11-14T07:55:56;46.95;;;23.52;;
9671;SDS011;4874;43.568;27.824;2022-11-14T07:58:27;53.28;;;24.92;;
9671;SDS011;4874;43.568;27.824;2022-11-14T08:03:20;53.53;;;24.60;;
9671;SDS011;4874;43.568;27.824;2022-11-14T08:05:47;54.72;;;24.92;;
9671;SDS011;4874;43.568;27.824;2022-11-14T08:08:14;53.05;;;24.90;;
9671;SDS011;4874;43.568;27.824;2022-11-14T08:10:40;59.10;;;24.20;;
9671;SDS011;4874;43.568;27.824;2022-11-14T08:13:09;54.70;;;25.10;;
9671;SDS011;4874;43.568;27.824;2022-11-14T08:15:56;59.38;;;24.92;;
9671;SDS011;4874;43.568;27.824;2022-11-14T08:18:23;58.25;;;28.02;;
9671;SDS011;4874;43.568;27.824;2022-11-14T08:20:49;63.97;;;30.60;;
9671;SDS011;4874;43.568;27.824;2022-11-14T08:25:43;53.53;;;25.88;;
9671;SDS011;4874;43.568;27.824;2022-11-14T08:30:36;58.63;;;26.10;;
9671;SDS011;4874;43.568;27.824;2022-11-14T08:33:03;59.67;;;28.10;;
9671;SDS011;4874;43.568;27.824;2022-11-14T08:35:34;63.50;;;28.92;;
9671;SDS011;4874;43.568;27.824;2022-11-14T08:38:01;60.83;;;26.92;;
9671;SDS011;4874;43.568;27.824;2022-11-14T08:40:28;62.22;;;28.75;;
9671;SDS011;4874;43.568;27.824;2022-11-14T08:42:59;54.13;;;22.70;;
9671;SDS011;4874;43.568;27.824;2022-11-14T08:45:27;55.83;;;24.42;;
9671;SDS011;4874;43.568;27.824;2022-11-14T08:47:54;52.45;;;22.83;;
9671;SDS011;4874;43.568;27.824;2022-11-14T08:50:22;56.75;;;24.35;;
9671;SDS011;4874;43.568;27.824;2022-11-14T08:52:49;56.53;;;23.13;;
9671;SDS011;4874;43.568;27.824;2022-11-14T08:55:17;58.72;;;25.90;;
9671;SDS011;4874;43.568;27.824;2022-11-14T08:57:45;63.05;;;24.88;;
9671;SDS011;4874;43.568;27.824;2022-11-14T09:00:15;57.03;;;24.02;;
9671;SDS011;4874;43.568;27.824;2022-11-14T09:02:42;51.40;;;22.60;;
9671;SDS011;4874;43.568;27.824;2022-11-14T09:07:35;48.60;;;21.05;;
9671;SDS011;4874;43.568;27.824;2022-11-14T09:10:02;50.65;;;21.27;;
9671;SDS011;4874;43.568;27.824;2022-11-14T09:12:30;52.63;;;21.67;;
9671;SDS011;4874;43.568;27.824;2022-11-14T09:14:57;58.97;;;24.13;;
9671;SDS011;4874;43.568;27.824;2022-11-14T09:19:50;64.32;;;23.90;;
9671;SDS011;4874;43.568;27.824;2022-11-14T09:24:43;63.75;;;23.73;;
9671;SDS011;4874;43.568;27.824;2022-11-14T09:27:12;59.55;;;23.00;;
9671;SDS011;4874;43.568;27.824;2022-11-14T09:32:06;56.00;;;21.55;;
9671;SDS011;4874;43.568;27.824;2022-11-14T09:34:33;54.40;;;22.15;;
9671;SDS011;4874;43.568;27.824;2022-11-14T09:36:59;52.00;;;21.48;;
9671;SDS011;4874;43.568;27.824;2022-11-14T09:44:58;46.08;;;20.50;;
9671;SDS011;4874;43.568;27.824;2022-11-14T09:47:38;44.17;;;21.67;;
9671;SDS011;4874;43.568;27.824;2022-11-14T09:50:25;46.08;;;19.73;;
9671;SDS011;4874;43.568;27.824;2022-11-14T09:53:03;41.85;;;20.30;;
9671;SDS011;4874;43.568;27.824;2022-11-14T09:55:35;46.78;;;20.90;;
9671;SDS011;4874;43.568;27.824;2022-11-14T09:58:02;49.42;;;22.27;;
9671;SDS011;4874;43.568;27.824;2022-11-14T10:00:49;46.53;;;20.25;;
9671;SDS011;4874;43.568;27.824;2022-11-14T10:11:53;40.67;;;16.90;;
9671;SDS011;4874;43.568;27.824;2022-11-14T10:14:28;41.15;;;18.52;;
9671;SDS011;4874;43.568;27.824;2022-11-14T10:23:13;42.28;;;17.77;;
9671;SDS011;4874;43.568;27.824;2022-11-14T10:26:06;40.20;;;16.88;;
9671;SDS011;4874;43.568;27.824;2022-11-14T10:34:23;37.88;;;17.20;;
9671;SDS011;4874;43.568;27.824;2022-11-14T10:39:43;40.00;;;18.42;;
9671;SDS011;4874;43.568;27.824;2022-11-14T10:42:34;34.17;;;15.67;;
9671;SDS011;4874;43.568;27.824;2022-11-14T10:47:37;41.17;;;16.45;;
9671;SDS011;4874;43.568;27.824;2022-11-14T10:50:14;34.67;;;15.35;;
9671;SDS011;4874;43.568;27.824;2022-11-14T10:52:42;35.72;;;14.93;;
9671;SDS011;4874;43.568;27.824;2022-11-14T10:55:15;35.35;;;16.13;;
9671;SDS011;4874;43.568;27.824;2022-11-14T10:57:46;37.55;;;15.32;;
9671;SDS011;4874;43.568;27.824;2022-11-14T11:00:14;33.55;;;14.85;;
9671;SDS011;4874;43.568;27.824;2022-11-14T11:02:54;35.60;;;15.82;;
9671;SDS011;4874;43.568;27.824;2022-11-14T11:05:23;38.00;;;15.65;;
9671;SDS011;4874;43.568;27.824;2022-11-14T11:07:55;36.50;;;15.18;;
9671;SDS011;4874;43.568;27.824;2022-11-14T11:11:03;34.63;;;16.35;;
9671;SDS011;4874;43.568;27.824;2022-11-14T11:13:52;35.33;;;16.70;;
9671;SDS011;4874;43.568;27.824;2022-11-14T11:16:24;36.72;;;16.60;;
9671;SDS011;4874;43.568;27.824;2022-11-14T11:18:52;33.40;;;15.07;;
9671;SDS011;4874;43.568;27.824;2022-11-14T11:26:28;36.75;;;15.68;;
9671;SDS011;4874;43.568;27.824;2022-11-14T11:29:15;33.92;;;15.38;;
9671;SDS011;4874;43.568;27.824;2022-11-14T11:34:18;34.67;;;15.80;;
9671;SDS011;4874;43.568;27.824;2022-11-14T11:36:54;33.80;;;15.00;;
9671;SDS011;4874;43.568;27.824;2022-11-14T11:39:30;32.40;;;14.93;;
9671;SDS011;4874;43.568;27.824;2022-11-14T11:42:01;32.72;;;14.32;;
9671;SDS011;4874;43.568;27.824;2022-11-14T11:44:37;38.55;;;18.27;;
9671;SDS011;4874;43.568;27.824;2022-11-14T11:47:10;38.65;;;17.33;;
9671;SDS011;4874;43.568;27.824;2022-11-14T11:49:42;35.53;;;16.17;;
9671;SDS011;4874;43.568;27.824;2022-11-14T11:52:39;35.38;;;17.00;;
9671;SDS011;4874;43.568;27.824;2022-11-14T11:55:24;34.38;;;15.98;;
9671;SDS011;4874;43.568;27.824;2022-11-14T12:00:35;40.75;;;16.58;;
9671;SDS011;4874;43.568;27.824;2022-11-14T12:10:58;31.35;;;15.18;;
9671;SDS011;4874;43.568;27.824;2022-11-14T12:13:38;31.75;;;15.43;;
9671;SDS011;4874;43.568;27.824;2022-11-14T12:30:19;32.47;;;14.93;;
9671;SDS011;4874;43.568;27.824;2022-11-14T12:32:52;28.25;;;13.43;;
9671;SDS011;4874;43.568;27.824;2022-11-14T12:35:35;34.85;;;14.98;;
9671;SDS011;4874;43.568;27.824;2022-11-14T12:38:03;32.92;;;15.65;;
9671;SDS011;4874;43.568;27.824;2022-11-14T12:40:38;30.33;;;14.82;;
9671;SDS011;4874;43.568;27.824;2022-11-14T12:43:23;32.85;;;13.93;;
9671;SDS011;4874;43.568;27.824;2022-11-14T12:46:05;30.42;;;14.63;;
9671;SDS011;4874;43.568;27.824;2022-11-14T12:48:45;28.65;;;13.77;;
9671;SDS011;4874;43.568;27.824;2022-11-14T12:53:54;32.17;;;16.20;;
9671;SDS011;4874;43.568;27.824;2022-11-14T13:01:43;33.13;;;15.45;;
9671;SDS011;4874;43.568;27.824;2022-11-14T13:04:17;29.83;;;13.77;;
9671;SDS011;4874;43.568;27.824;2022-11-14T13:15:28;36.33;;;16.70;;
9671;SDS011;4874;43.568;27.824;2022-11-14T13:27:28;34.90;;;15.55;;
9671;SDS011;4874;43.568;27.824;2022-11-14T13:30:17;35.83;;;15.90;;
9671;SDS011;4874;43.568;27.824;2022-11-14T13:35:12;32.58;;;13.50;;
9671;SDS011;4874;43.568;27.824;2022-11-14T13:40:32;31.17;;;13.57;;
9671;SDS011;4874;43.568;27.824;2022-11-14T13:43:16;32.33;;;14.00;;
9671;SDS011;4874;43.568;27.824;2022-11-14T13:51:06;29.67;;;12.23;;
9671;SDS011;4874;43.568;27.824;2022-11-14T13:53:58;26.80;;;13.05;;
9671;SDS011;4874;43.568;27.824;2022-11-14T13:59:07;36.35;;;14.82;;
9671;SDS011;4874;43.568;27.824;2022-11-14T14:16:35;37.88;;;14.93;;
9671;SDS011;4874;43.568;27.824;2022-11-14T14:19:25;32.63;;;13.85;;
9671;SDS011;4874;43.568;27.824;2022-11-14T14:22:15;32.22;;;14.48;;
9671;SDS011;4874;43.568;27.824;2022-11-14T14:30:14;28.95;;;13.32;;
9671;SDS011;4874;43.568;27.824;2022-11-14T14:32:59;27.83;;;13.32;;
9671;SDS011;4874;43.568;27.824;2022-11-14T14:35:34;28.73;;;13.57;;
9671;SDS011;4874;43.568;27.824;2022-11-14T14:38:12;28.80;;;14.27;;
9671;SDS011;4874;43.568;27.824;2022-11-14T14:40:52;28.77;;;12.48;;
9671;SDS011;4874;43.568;27.824;2022-11-14T14:43:26;30.60;;;15.27;;
9671;SDS011;4874;43.568;27.824;2022-11-14T14:45:59;32.72;;;14.93;;
9671;SDS011;4874;43.568;27.824;2022-11-14T14:48:30;26.73;;;13.50;;
9671;SDS011;4874;43.568;27.824;2022-11-14T14:51:01;26.17;;;14.10;;
9671;SDS011;4874;43.568;27.824;2022-11-14T14:53:31;22.52;;;10.90;;
9671;SDS011;4874;43.568;27.824;2022-11-14T14:56:00;25.75;;;11.25;;
9671;SDS011;4874;43.568;27.824;2022-11-14T14:58:30;23.25;;;12.07;;
9671;SDS011;4874;43.568;27.824;2022-11-14T15:03:28;31.25;;;16.30;;
9671;SDS011;4874;43.568;27.824;2022-11-14T15:06:17;24.88;;;13.40;;
9671;SDS011;4874;43.568;27.824;2022-11-14T15:09:07;22.02;;;11.23;;
9671;SDS011;4874;43.568;27.824;2022-11-14T15:11:38;29.25;;;14.00;;
9671;SDS011;4874;43.568;27.824;2022-11-14T15:14:11;25.15;;;14.73;;
9671;SDS011;4874;43.568;27.824;2022-11-14T15:16:40;21.63;;;11.20;;
9671;SDS011;4874;43.568;27.824;2022-11-14T15:19:11;19.83;;;10.38;;
9671;SDS011;4874;43.568;27.824;2022-11-14T15:21:40;20.55;;;10.00;;
9671;SDS011;4874;43.568;27.824;2022-11-14T15:24:12;18.50;;;10.02;;
9671;SDS011;4874;43.568;27.824;2022-11-14T15:26:39;19.98;;;10.05;;
9671;SDS011;4874;43.568;27.824;2022-11-14T15:29:22;19.63;;;10.25;;
9671;SDS011;4874;43.568;27.824;2022-11-14T15:39:51;16.20;;;9.20;;
9671;SDS011;4874;43.568;27.824;2022-11-14T15:47:16;16.77;;;9.02;;
9671;SDS011;4874;43.568;27.824;2022-11-14T15:52:39;16.88;;;9.85;;
9671;SDS011;4874;43.568;27.824;2022-11-14T15:55:20;17.38;;;10.40;;
9671;SDS011;4874;43.568;27.824;2022-11-14T15:57:48;17.90;;;9.43;;
9671;SDS011;4874;43.568;27.824;2022-11-14T16:00:32;19.55;;;10.75;;
9671;SDS011;4874;43.568;27.824;2022-11-14T16:02:58;18.85;;;10.32;;
9671;SDS011;4874;43.568;27.824;2022-11-14T16:05:26;16.25;;;9.48;;
9671;SDS011;4874;43.568;27.824;2022-11-14T16:07:54;23.02;;;12.73;;
9671;SDS011;4874;43.568;27.824;2022-11-14T16:10:25;38.55;;;19.63;;
9671;SDS011;4874;43.568;27.824;2022-11-14T16:12:53;28.65;;;16.85;;
9671;SDS011;4874;43.568;27.824;2022-11-14T16:15:20;25.63;;;15.15;;
9671;SDS011;4874;43.568;27.824;2022-11-14T16:17:48;31.02;;;16.95;;
9671;SDS011;4874;43.568;27.824;2022-11-14T16:20:17;49.05;;;27.73;;
9671;SDS011;4874;43.568;27.824;2022-11-14T16:22:48;33.70;;;18.15;;
9671;SDS011;4874;43.568;27.824;2022-11-14T16:25:16;23.30;;;12.98;;
9671;SDS011;4874;43.568;27.824;2022-11-14T16:27:47;25.70;;;14.05;;
9671;SDS011;4874;43.568;27.824;2022-11-14T16:30:15;23.90;;;13.65;;
9671;SDS011;4874;43.568;27.824;2022-11-14T16:32:44;25.15;;;13.55;;
9671;SDS011;4874;43.568;27.824;2022-11-14T16:35:13;22.13;;;12.68;;
9671;SDS011;4874;43.568;27.824;2022-11-14T16:37:42;26.25;;;13.82;;
9671;SDS011;4874;43.568;27.824;2022-11-14T16:40:19;26.27;;;13.10;;
9671;SDS011;4874;43.568;27.824;2022-11-14T16:42:48;22.42;;;13.18;;
9671;SDS011;4874;43.568;27.824;2022-11-14T16:45:15;26.55;;;13.90;;
9671;SDS011;4874;43.568;27.824;2022-11-14T16:47:45;27.13;;;16.92;;
9671;SDS011;4874;43.568;27.824;2022-11-14T16:50:12;26.48;;;14.63;;
9671;SDS011;4874;43.568;27.824;2022-11-14T16:52:39;28.45;;;16.27;;
9671;SDS011;4874;43.568;27.824;2022-11-14T16:57:33;24.88;;;15.27;;
9671;SDS011;4874;43.568;27.824;2022-11-14T17:00:03;117.82;;;68.88;;
9671;SDS011;4874;43.568;27.824;2022-11-14T17:02:31;25.30;;;13.23;;
9671;SDS011;4874;43.568;27.824;2022-11-14T17:04:57;22.83;;;13.07;;
9671;SDS011;4874;43.568;27.824;2022-11-14T17:09:56;21.60;;;11.88;;
9671;SDS011;4874;43.568;27.824;2022-11-14T17:12:23;19.88;;;12.57;;
9671;SDS011;4874;43.568;27.824;2022-11-14T17:14:50;18.27;;;10.57;;
9671;SDS011;4874;43.568;27.824;2022-11-14T17:17:16;18.40;;;10.93;;
9671;SDS011;4874;43.568;27.824;2022-11-14T17:19:43;21.05;;;11.07;;
9671;SDS011;4874;43.568;27.824;2022-11-14T17:22:13;18.55;;;10.60;;
9671;SDS011;4874;43.568;27.824;2022-11-14T17:24:40;18.15;;;11.20;;
9671;SDS011;4874;43.568;27.824;2022-11-14T17:27:07;17.90;;;10.43;;
9671;SDS011;4874;43.568;27.824;2022-11-14T17:29:35;29.40;;;17.33;;
9671;SDS011;4874;43.568;27.824;2022-11-14T17:32:01;17.88;;;10.48;;
9671;SDS011;4874;43.568;27.824;2022-11-14T17:34:29;20.52;;;11.20;;
9671;SDS011;4874;43.568;27.824;2022-11-14T17:36:57;18.70;;;11.52;;
9671;SDS011;4874;43.568;27.824;2022-11-14T17:39:24;19.27;;;10.75;;
9671;SDS011;4874;43.568;27.824;2022-11-14T17:41:51;19.15;;;12.27;;
9671;SDS011;4874;43.568;27.824;2022-11-14T17:44:18;21.55;;;12.07;;
9671;SDS011;4874;43.568;27.824;2022-11-14T17:46:45;16.38;;;10.23;;
9671;SDS011;4874;43.568;27.824;2022-11-14T17:49:12;17.58;;;10.55;;
9671;SDS011;4874;43.568;27.824;2022-11-14T17:51:39;23.58;;;12.55;;
9671;SDS011;4874;43.568;27.824;2022-11-14T17:54:06;21.92;;;13.05;;
9671;SDS011;4874;43.568;27.824;2022-11-14T17:56:34;19.48;;;11.57;;
9671;SDS011;4874;43.568;27.824;2022-11-14T17:59:00;24.30;;;12.60;;
9671;SDS011;4874;43.568;27.824;2022-11-14T18:01:27;25.27;;;13.15;;
9671;SDS011;4874;43.568;27.824;2022-11-14T18:03:56;21.67;;;12.07;;
9671;SDS011;4874;43.568;27.824;2022-11-14T18:06:28;21.88;;;11.27;;
9671;SDS011;4874;43.568;27.824;2022-11-14T18:08:54;20.42;;;12.45;;
9671;SDS011;4874;43.568;27.824;2022-11-14T18:11:21;20.83;;;11.20;;
9671;SDS011;4874;43.568;27.824;2022-11-14T18:13:52;17.75;;;10.73;;
9671;SDS011;4874;43.568;27.824;2022-11-14T18:16:20;19.83;;;11.48;;
9671;SDS011;4874;43.568;27.824;2022-11-14T18:18:47;20.67;;;11.65;;
9671;SDS011;4874;43.568;27.824;2022-11-14T18:21:20;18.27;;;10.88;;
9671;SDS011;4874;43.568;27.824;2022-11-14T18:23:49;20.90;;;12.05;;